createdAt,value
2018-05-07T18:18:28.114Z,5.20
2018-05-07T18:20:56.439Z,4.87
2018-05-07T18:23:23.844Z,4.03
2018-05-07T18:25:51.249Z,4.90
2018-05-07T18:28:18.582Z,4.23
2018-05-07T18:30:46.079Z,5.83
2018-05-07T18:33:13.552Z,5.50
2018-05-07T18:35:40.996Z,5.33
2018-05-07T18:38:08.489Z,8.33
2018-05-07T18:40:35.835Z,5.80
2018-05-07T18:43:03.172Z,7.60
2018-05-07T18:45:30.647Z,5.63
2018-05-07T18:47:58.035Z,14.20
2018-05-07T18:50:25.424Z,6.80
2018-05-07T18:52:52.807Z,8.10
2018-05-07T18:55:20.202Z,9.93
2018-05-07T18:57:47.548Z,6.10
2018-05-07T19:00:14.935Z,8.70
2018-05-07T19:02:42.290Z,10.20
2018-05-07T19:05:09.740Z,15.45
2018-05-07T19:07:37.146Z,14.20
2018-05-07T19:10:04.528Z,16.13
2018-05-07T19:12:31.923Z,9.10
2018-05-07T19:14:59.262Z,7.50
2018-05-07T19:17:26.662Z,8.53
2018-05-07T19:19:54.181Z,10.00
2018-05-07T19:22:21.523Z,8.33
2018-05-07T19:24:49.003Z,10.83
2018-05-07T19:27:16.533Z,10.93
2018-05-07T19:29:43.925Z,9.63
2018-05-07T19:32:11.349Z,9.70
2018-05-07T19:34:38.723Z,14.33
2018-05-07T19:37:06.260Z,8.47
2018-05-07T19:39:33.672Z,8.67
2018-05-07T19:42:01.232Z,10.13
2018-05-07T19:44:28.665Z,10.53
2018-05-07T19:46:56.065Z,6.63
2018-05-07T19:49:23.414Z,10.07
2018-05-07T19:51:50.799Z,10.90
2018-05-07T19:54:18.233Z,10.00
2018-05-07T19:56:45.746Z,15.90
2018-05-07T19:59:13.347Z,12.13
2018-05-07T20:01:40.762Z,14.27
2018-05-07T20:04:08.287Z,8.33
2018-05-07T20:06:35.871Z,10.77
2018-05-07T20:09:03.262Z,10.13
2018-05-07T20:11:30.668Z,11.20
2018-05-07T20:13:58.088Z,14.43
2018-05-07T20:16:25.486Z,15.80
2018-05-07T20:18:53.296Z,15.47
2018-05-07T20:21:20.766Z,15.40
2018-05-07T20:23:48.168Z,16.10
2018-05-07T20:26:15.604Z,14.60
2018-05-07T20:28:43.043Z,16.90
2018-05-07T20:31:10.431Z,17.50
2018-05-07T20:33:37.820Z,22.33
2018-05-07T20:36:05.246Z,17.73
2018-05-07T20:38:32.793Z,21.70
2018-05-07T20:41:00.152Z,18.20
2018-05-07T20:43:27.527Z,14.00
2018-05-07T20:45:54.904Z,14.83
2018-05-07T20:48:22.289Z,13.80
2018-05-07T20:50:49.728Z,16.00
2018-05-07T20:53:17.340Z,15.43
2018-05-07T20:55:44.830Z,15.53
2018-05-07T20:58:22.284Z,15.63
2018-05-07T21:00:49.692Z,19.23
2018-05-07T21:03:18.061Z,14.17
2018-05-07T21:05:45.486Z,14.03
2018-05-07T21:08:12.864Z,10.80
2018-05-07T21:10:40.215Z,11.40
2018-05-07T21:13:07.640Z,13.43
2018-05-07T21:15:35.107Z,10.80
2018-05-07T21:18:02.485Z,9.03
2018-05-07T21:20:29.912Z,10.83
2018-05-07T21:22:57.356Z,12.27
2018-05-07T21:25:24.750Z,8.97
2018-05-07T21:27:52.148Z,13.63
2018-05-07T21:30:19.527Z,11.87
2018-05-07T21:32:46.924Z,11.30
2018-05-07T21:35:14.326Z,10.43
2018-05-07T21:37:41.752Z,10.17
2018-05-07T21:40:09.167Z,9.90
2018-05-07T21:42:36.563Z,10.83
2018-05-07T21:45:03.955Z,9.57
2018-05-07T21:47:31.339Z,10.60
2018-05-07T21:49:58.765Z,9.27
2018-05-07T21:52:26.164Z,9.30
2018-05-07T21:54:53.542Z,9.30
2018-05-07T21:57:20.943Z,11.50
2018-05-07T21:59:48.374Z,11.27
2018-05-07T22:02:15.753Z,11.47
2018-05-07T22:04:43.186Z,9.50
2018-05-07T22:07:10.561Z,8.90
2018-05-07T22:09:37.952Z,9.53
2018-05-07T22:12:05.381Z,9.80
2018-05-07T22:14:32.741Z,10.17
2018-05-07T22:17:00.159Z,9.77
2018-05-07T22:19:27.608Z,14.60
2018-05-07T22:21:54.967Z,10.37
2018-05-07T22:24:22.355Z,14.23
2018-05-07T22:26:49.764Z,10.30
2018-05-07T22:29:17.115Z,9.47
2018-05-07T22:31:44.556Z,11.27
2018-05-07T22:34:11.921Z,10.20
2018-05-07T22:36:39.308Z,16.40
2018-05-07T22:39:06.731Z,10.10
2018-05-07T22:41:34.123Z,13.23
2018-05-07T22:44:01.548Z,9.93
2018-05-07T22:46:28.899Z,10.00
2018-05-07T22:48:56.319Z,8.60
2018-05-07T22:51:23.712Z,12.33
2018-05-07T22:53:51.154Z,10.30
2018-05-07T22:56:18.526Z,10.07
2018-05-07T22:58:45.974Z,11.70
2018-05-07T23:01:13.321Z,10.27
2018-05-07T23:03:40.751Z,9.83
2018-05-07T23:06:08.192Z,9.07
2018-05-07T23:08:35.573Z,9.87
2018-05-07T23:11:02.993Z,14.07
2018-05-07T23:13:30.437Z,10.17
2018-05-07T23:15:57.823Z,8.80
2018-05-07T23:18:25.248Z,9.97
2018-05-07T23:20:52.660Z,9.93
2018-05-07T23:23:20.188Z,10.73
2018-05-07T23:25:47.567Z,10.73
2018-05-07T23:28:15.022Z,10.90
2018-05-07T23:30:42.435Z,12.83
2018-05-07T23:33:09.902Z,12.90
2018-05-07T23:35:37.346Z,12.40
2018-05-07T23:38:04.841Z,9.87
2018-05-07T23:40:32.244Z,9.50
2018-05-07T23:42:59.590Z,10.53
2018-05-07T23:45:26.979Z,11.40
2018-05-07T23:47:54.356Z,11.23
2018-05-07T23:50:21.738Z,15.40
2018-05-07T23:52:49.104Z,9.20
2018-05-07T23:55:16.502Z,12.07
2018-05-07T23:57:44.072Z,13.70
